Back to Top

Language: 

Current Local METAR Station Weather Reports...

Local METAR Reports

Local METAR Reports

 

EGCN - Doncaster Sheffield Airport, United Kingdom
Distance from station: E 20mi, 32km
Updated: Sun, 19-Aug-2018 9:50am BST
Overcast
Overcast
 Wind from SSW
Wind: SSW 18 mph , 30 km/h
Temperature: 19°C
Dew Point: 16°C
Humidity: 83%
Barometer: 1014 hPa
Clouds: Overcast
Visibility: 6 miles , 10 km
Cloud details: Few Clouds 457 m
Partly Cloudy 610 m
Overcast 792 m
2018/08/19 08:50 EGCN 190850Z 21016KT 9999 FEW015 SCT020 OVC026 19/16 Q1014
EGNM - Leeds Bradford International, United Kingdom
Distance from station: NNW 24mi, 39km
Updated: Sun, 19-Aug-2018 9:50am BST
Partly Cloudy
Partly Cloudy
 Wind from WSW
Wind: WSW 20 mph , 31 km/h
Temperature: 18°C
Dew Point: 16°C
Humidity: 88%
Barometer: 1012 hPa
Clouds: Partly Cloudy
Visibility: 6 miles , 10 km
Cloud details: Partly Cloudy 183 m
Partly Cloudy 305 m
2018/08/19 08:50 EGNM 190850Z 25017KT 9999 8000NW SCT006 SCT010 18/16 Q1012
 
EGCC - Manchester International, United Kingdom
Distance from station: WSW 35mi, 56km
Updated: Sun, 19-Aug-2018 9:50am BST
Thunderstorm
Thunderstorm
 Wind from SSW
Wind: SSW 8 mph , 13 km/h
Temperature: 17°C
Dew Point: 17°C
Humidity: 100%
Barometer: 1014 hPa
Clouds: Thunderstorm
Visibility: 6 miles , 10 km
Cloud details: Partly Cloudy 549 m
Mostly Cloudy 914 m
Overcast 1250 m
2018/08/19 08:50 EGCC 190850Z AUTO 21007KT 9999 SCT018/// BKN030/// OVC041/// //////CB 17/17 Q1014 NOSIG
EGXU - Linton-On-Ouse RAF, United Kingdom
Distance from station: NNE 37mi, 60km
Updated: Sun, 19-Aug-2018 9:50am BST
Mostly Cloudy
Mostly Cloudy
 Wind from WSW
Wind: WSW 16 mph , 26 km/h
Temperature: 19°C
Dew Point: 16°C
Humidity: 83%
Barometer: 1012 hPa
Clouds: Mostly Cloudy
Visibility: 6 miles , 10 km
Cloud details: Mostly Cloudy 1524 m
2018/08/19 08:50 EGXU 190850Z AUTO 25014KT 9999 // BKN050/// 19/16 Q1012
 
EGXP - Scampton RAF, United Kingdom
Distance from station: ESE 41mi, 66km
Updated: Sun, 19-Aug-2018 9:50am BST
Partly Cloudy
Partly Cloudy
 Wind from SW
Wind: SW 18 mph , 30 km/h
Temperature: 18°C
Dew Point: 16°C
Humidity: 88%
Barometer: 1013 hPa
Clouds: Partly Cloudy
Visibility: 6 miles , 10 km
Cloud details: Partly Cloudy 305 m
Partly Cloudy 457 m
2018/08/19 08:50 EGXP 190850Z AUTO 23016KT 9999 // SCT010/// SCT015/// 18/16 Q1013
EGNJ - Humberside Airport, United Kingdom
Distance from station: E 46mi, 74km
Updated: Sun, 19-Aug-2018 9:50am BST
Mostly Cloudy
Mostly Cloudy
 Wind from SSW
Wind: SSW 23 mph , 37 km/h
Temperature: 20°C
Dew Point: 16°C
Humidity: 78%
Barometer: 1013 hPa
Clouds: Mostly Cloudy
Visibility: 6 miles , 10 km
Cloud details: Partly Cloudy 518 m
Mostly Cloudy 671 m
2018/08/19 08:50 EGNJ 190850Z 21020KT 9999 SCT017 BKN022 20/16 Q1013
 
EGXW - Waddington RAF, United Kingdom
Distance from station: ESE 46mi, 74km
Updated: Sun, 19-Aug-2018 9:50am BST
Light drizzle, Mostly cloudy
Light drizzle, Mostly cloudy
 Wind from SW
Wind: SW 21 mph , 33 km/h
Temperature: 18°C
Dew Point: 16°C
Humidity: 88%
Barometer: 1014 hPa
Summary: Light Drizzle
Clouds: Mostly Cloudy
Visibility: 3 miles , 5 km
Cloud details: Mostly Cloudy 305 m
2018/08/19 08:50 EGXW 190850Z 23018KT 5000 -DZ BKN010 18/16 Q1014 GRN
EGXZ - Topcliffe RAF, United Kingdom
Distance from station: N 46mi, 75km
Updated: Sun, 19-Aug-2018 9:50am BST
Mostly Cloudy
Mostly Cloudy
 Wind from WSW
Wind: WSW 9 mph , 15 km/h
Temperature: 19°C
Dew Point: 17°C
Humidity: 88%
Barometer: 1012 hPa
Clouds: Mostly Cloudy
Visibility: 6 miles , 10 km
Cloud details: Few Clouds 732 m
Mostly Cloudy 1524 m
2018/08/19 08:50 EGXZ 190850Z AUTO 24008KT 9999 FEW024/// BKN050/// 19/17 Q1012
 
EGXV - Leconfield, United Kingdom
Distance from station: ENE 48mi, 77km
Updated: Sun, 19-Aug-2018 9:50am BST
Partly Cloudy
Partly Cloudy
 Wind from SW
Wind: SW 16 mph , 26 km/h
Temperature: 20°C
Dew Point: 15°C
Humidity: 73%
Barometer: 1012 hPa
Clouds: Partly Cloudy
Visibility: 6 miles , 10 km
Cloud details: Mostly Cloudy 640 m
Partly Cloudy 792 m
2018/08/19 08:50 EGXV 190850Z AUTO 22014KT 9999 BKN021/// SCT026/// 20/15 Q1012
EGNX - East Midlands, United Kingdom
Distance from station: S 50mi, 80km
Updated: Sun, 19-Aug-2018 9:50am BST
Mostly Cloudy
Mostly Cloudy
 Wind from SW
Wind: SW 15 mph , 24 km/h
Temperature: 17°C
Dew Point: 16°C
Humidity: 94%
Barometer: 1014 hPa
Clouds: Mostly Cloudy
Visibility: 4 miles , 6 km
Cloud details: Mostly Cloudy 305 m
2018/08/19 08:50 EGNX 190850Z 22013KT 6000 BKN010 17/16 Q1014

Metar display script from Saratoga-Weather.org

Data updates at regular intervals.